Time;durP1;ratioP1;P1;durP2;ratioP2;P2;SDS_P1;SDS_P2;PMS_P1;PMS_P2;Temp;Humidity;BMP_temperature;BMP_pressure;BME280_temperature;BME280_humidity;BME280_pressure;Samples;Min_cycle;Max_cycle;Signal;HPM_P1;HPM_P2
2022/11/23 00:01:23;;;;;;;1999.90;999.90;;;10.60;99.90;;;;;;5090598;28;20027;-75
2022/11/23 00:03:51;;;;;;;1999.90;999.90;;;10.60;99.90;;;;;;5072169;28;20036;-74
2022/11/23 00:06:17;;;;;;;1999.90;999.90;;;10.60;99.90;;;;;;5071541;28;20483;-78
2022/11/23 00:08:44;;;;;;;1999.90;999.90;;;10.60;99.90;;;;;;5072121;28;20060;-78
2022/11/23 00:11:10;;;;;;;1999.90;999.90;;;10.60;99.90;;;;;;5072406;28;20024;-79
2022/11/23 00:13:38;;;;;;;1999.90;999.90;;;10.60;99.90;;;;;;5071911;28;20535;-79
2022/11/23 00:16:15;;;;;;;1999.90;999.90;;;10.60;99.90;;;;;;5068247;28;20017;-75
2022/11/23 00:18:41;;;;;;;1999.90;999.90;;;10.60;99.90;;;;;;5072211;28;20078;-79
2022/11/23 00:21:09;;;;;;;1999.90;999.90;;;10.60;99.90;;;;;;5072599;28;20021;-80
2022/11/23 00:23:35;;;;;;;1999.90;999.90;;;10.60;99.90;;;;;;5071711;28;20485;-75
2022/11/23 00:26:02;;;;;;;1999.90;999.90;;;10.60;99.90;;;;;;5071920;28;20044;-74
2022/11/23 00:28:27;;;;;;;1999.90;999.90;;;10.60;99.90;;;;;;5071839;28;20466;-75
2022/11/23 00:30:53;;;;;;;1999.90;999.90;;;10.70;99.90;;;;;;5072152;28;20094;-75
2022/11/23 00:33:18;;;;;;;1999.90;999.90;;;10.60;99.90;;;;;;5066702;28;20436;-75
2022/11/23 00:35:44;;;;;;;1999.90;999.90;;;10.60;99.90;;;;;;5051945;28;20032;-80
2022/11/23 00:38:10;;;;;;;1999.90;999.90;;;10.60;99.90;;;;;;5052122;28;20025;-75
2022/11/23 00:40:36;;;;;;;1999.90;999.90;;;10.70;99.90;;;;;;5052059;28;20033;-75
2022/11/23 00:43:02;;;;;;;1999.90;999.90;;;10.70;99.90;;;;;;5052112;28;20171;-75
2022/11/23 00:45:28;;;;;;;1999.90;999.90;;;10.70;99.90;;;;;;5082891;28;20034;-75
2022/11/23 00:47:54;;;;;;;1999.90;999.90;;;10.60;99.90;;;;;;5092032;28;20103;-79
2022/11/23 00:50:19;;;;;;;1999.90;999.90;;;10.60;99.90;;;;;;5091858;28;20510;-79
2022/11/23 00:52:45;;;;;;;1999.90;999.90;;;10.60;99.90;;;;;;5092115;28;20028;-75
2022/11/23 00:55:11;;;;;;;1999.90;999.90;;;10.70;99.90;;;;;;5092168;28;20027;-75
2022/11/23 00:57:36;;;;;;;1999.90;999.90;;;10.70;99.90;;;;;;5091877;28;20107;-78
2022/11/23 01:00:05;;;;;;;1999.90;999.90;;;10.70;99.90;;;;;;5092140;28;20099;-75
2022/11/23 01:02:32;;;;;;;1999.90;999.90;;;10.70;99.90;;;;;;5078183;28;20043;-79
2022/11/23 01:04:58;;;;;;;1999.90;999.90;;;10.70;99.90;;;;;;5071623;28;20058;-79
2022/11/23 01:07:23;;;;;;;1999.90;999.90;;;10.70;99.90;;;;;;5070811;28;20028;-74
2022/11/23 01:09:49;;;;;;;1999.90;999.90;;;10.70;99.90;;;;;;5074230;28;20412;-75
2022/11/23 01:12:15;;;;;;;1999.90;999.90;;;10.70;99.90;;;;;;5073760;28;20027;-79
2022/11/23 01:14:40;;;;;;;1999.90;999.90;;;10.70;99.90;;;;;;5075532;28;20028;-79
2022/11/23 01:17:06;;;;;;;1999.90;999.90;;;10.80;99.90;;;;;;5070050;28;20032;-80
2022/11/23 01:19:31;;;;;;;1999.90;999.90;;;10.80;99.90;;;;;;5075305;28;20032;-75
2022/11/23 01:21:57;;;;;;;1999.90;999.90;;;10.70;99.90;;;;;;5074839;28;20514;-74
2022/11/23 01:24:23;;;;;;;1999.90;999.90;;;10.80;99.90;;;;;;5074681;28;20029;-79
2022/11/23 01:26:52;;;;;;;1999.90;999.90;;;10.80;99.90;;;;;;5075245;28;20025;-80
2022/11/23 01:29:18;;;;;;;1999.90;999.90;;;10.80;99.90;;;;;;5073805;28;20035;-80
2022/11/23 01:31:44;;;;;;;1999.90;999.90;;;10.80;99.90;;;;;;5075150;28;20021;-75
2022/11/23 01:34:11;;;;;;;1999.90;999.90;;;10.80;99.90;;;;;;5062633;28;20100;-80
2022/11/23 01:36:37;;;;;;;1999.90;999.90;;;10.80;99.90;;;;;;5055024;28;20024;-80
2022/11/23 01:39:04;;;;;;;1999.90;999.90;;;10.80;99.90;;;;;;5055049;28;20025;-75
2022/11/23 01:41:35;;;;;;;1999.90;999.90;;;10.90;99.90;;;;;;5054834;28;20550;-80
2022/11/23 01:44:21;;;;;;;1999.90;999.90;;;10.90;99.90;;;;;;5056893;28;20074;-75
2022/11/23 01:46:47;;;;;;;1999.90;999.90;;;10.90;99.90;;;;;;5073543;28;20027;-75
2022/11/23 01:49:13;;;;;;;1999.90;999.90;;;10.90;99.90;;;;;;5073607;28;20037;-75
2022/11/23 01:51:43;;;;;;;1999.90;999.90;;;10.90;99.90;;;;;;5074985;28;20028;-75
2022/11/23 01:54:31;;;;;;;1999.90;999.90;;;10.90;99.90;;;;;;5074527;28;20029;-75
2022/11/23 01:57:02;;;;;;;1999.90;999.90;;;11.00;99.90;;;;;;5074335;28;20033;-80
2022/11/23 01:59:29;;;;;;;1999.90;999.90;;;10.90;99.90;;;;;;5074753;28;20120;-75
2022/11/23 02:01:55;;;;;;;1999.90;999.90;;;11.00;99.90;;;;;;5074445;28;20024;-75
2022/11/23 02:04:30;;;;;;;1999.90;999.90;;;11.00;99.90;;;;;;5074432;28;20511;-75
2022/11/23 02:06:58;;;;;;;1999.90;999.90;;;11.00;99.90;;;;;;5072427;28;20025;-80
2022/11/23 02:09:24;;;;;;;1999.90;999.90;;;11.00;99.90;;;;;;5069540;28;20040;-75
2022/11/23 02:11:51;;;;;;;1999.90;999.90;;;11.00;99.90;;;;;;5069356;28;20021;-75
2022/11/23 02:14:17;;;;;;;1999.90;999.90;;;11.00;99.90;;;;;;5064888;28;20511;-75
2022/11/23 02:16:42;;;;;;;1999.90;999.90;;;11.00;99.90;;;;;;5067574;28;20020;-75
2022/11/23 02:19:24;;;;;;;1999.90;999.90;;;11.00;99.90;;;;;;5073241;28;20028;-79
2022/11/23 02:21:51;;;;;;;1999.90;999.90;;;11.00;99.90;;;;;;5073437;28;20035;-80
2022/11/23 02:24:25;;;;;;;1999.90;999.90;;;11.00;99.90;;;;;;5073606;28;20025;-76
2022/11/23 02:26:51;;;;;;;1999.90;999.90;;;11.00;99.90;;;;;;5074384;28;20024;-75
2022/11/23 02:29:25;;;;;;;1999.90;999.90;;;11.00;99.90;;;;;;5074068;28;20021;-80
2022/11/23 02:31:51;;;;;;;1999.90;999.90;;;11.00;99.90;;;;;;5072708;28;20021;-80
2022/11/23 02:34:17;;;;;;;1999.90;999.90;;;11.00;99.90;;;;;;5073930;28;20029;-80
2022/11/23 02:36:48;;;;;;;1999.90;999.90;;;11.10;99.90;;;;;;5073860;28;20095;-75
2022/11/23 02:39:20;;;;;;;1999.90;999.90;;;11.10;99.90;;;;;;5072262;28;20024;-75
2022/11/23 02:41:49;;;;;;;1999.90;999.90;;;11.10;99.90;;;;;;5073848;28;20483;-80
2022/11/23 02:44:45;;;;;;;1999.90;999.90;;;11.10;99.90;;;;;;5073820;28;21185;-80
2022/11/23 02:47:11;;;;;;;1999.90;999.90;;;11.10;99.90;;;;;;5072448;28;20400;-76
2022/11/23 02:49:39;;;;;;;1999.90;999.90;;;11.10;99.90;;;;;;5073709;28;20021;-75
2022/11/23 02:52:05;;;;;;;1999.90;999.90;;;11.20;99.90;;;;;;5073484;28;20100;-75
2022/11/23 02:54:31;;;;;;;1999.90;999.90;;;11.20;99.90;;;;;;5073112;28;20639;-75
2022/11/23 02:56:56;;;;;;;1999.90;999.90;;;11.20;99.90;;;;;;5073740;28;20025;-80
2022/11/23 02:59:22;;;;;;;1999.90;999.90;;;11.20;99.90;;;;;;5073551;28;20040;-75
2022/11/23 03:01:48;;;;;;;1999.90;999.90;;;11.30;99.90;;;;;;5073476;28;20032;-80
2022/11/23 03:04:14;;;;;;;1999.90;999.90;;;11.30;99.90;;;;;;5073143;28;20044;-75
2022/11/23 03:06:40;;;;;;;1999.90;999.90;;;11.30;99.90;;;;;;5073332;28;20053;-75
2022/11/23 03:09:05;;;;;;;1999.90;999.90;;;11.30;99.90;;;;;;5072105;28;20519;-80
2022/11/23 03:11:32;;;;;;;1999.90;999.90;;;11.40;99.90;;;;;;5068916;28;20354;-75
2022/11/23 03:13:58;;;;;;;1999.90;999.90;;;11.30;99.90;;;;;;5068339;28;20039;-80
2022/11/23 03:16:24;;;;;;;1999.90;999.90;;;11.40;99.90;;;;;;5067269;28;20020;-76
2022/11/23 03:18:49;;;;;;;1999.90;999.90;;;11.40;99.90;;;;;;5072755;28;20073;-76
2022/11/23 03:21:15;;;;;;;1999.90;999.90;;;11.60;99.90;;;;;;5071555;28;20025;-80
2022/11/23 03:23:41;;;;;;;1999.90;999.90;;;11.80;99.90;;;;;;5072367;28;20446;-80
2022/11/23 03:26:07;;;;;;;1999.90;999.90;;;12.10;99.90;;;;;;5072660;28;20020;-80
2022/11/23 03:28:33;;;;;;;1999.90;999.90;;;12.30;99.90;;;;;;5070698;28;20400;-76
2022/11/23 03:30:58;;;;;;;1999.90;999.90;;;12.30;99.90;;;;;;5071501;28;20033;-76
2022/11/23 03:33:24;;;;;;;1999.90;999.90;;;12.30;99.90;;;;;;5072345;28;20047;-80
2022/11/23 03:35:50;;;;;;;1999.90;999.90;;;12.30;99.90;;;;;;5072709;28;20093;-76
2022/11/23 03:38:15;;;;;;;1999.90;999.90;;;12.20;99.90;;;;;;5072394;28;20035;-76
2022/11/23 03:40:44;;;;;;;1999.90;999.90;;;12.20;99.90;;;;;;5072396;28;20059;-80
2022/11/23 03:43:10;;;;;;;1999.90;999.90;;;12.30;99.90;;;;;;5072837;28;20030;-76
2022/11/23 03:45:35;;;;;;;1999.90;999.90;;;12.40;99.90;;;;;;5089137;28;20437;-75
2022/11/23 03:48:01;;;;;;;1999.90;999.90;;;12.60;99.90;;;;;;5092474;28;20040;-79
2022/11/23 03:50:28;;;;;;;1999.90;999.90;;;12.80;99.90;;;;;;5125353;27;20032;-78
2022/11/23 03:52:54;;;;;;;1999.90;999.90;;;12.80;99.90;;;;;;5092852;28;20032;-78
2022/11/23 03:55:20;;;;;;;1999.90;999.90;;;12.90;99.90;;;;;;5092778;28;20025;-75
2022/11/23 03:57:49;;;;;;;1999.90;999.90;;;12.90;99.90;;;;;;5125474;27;20028;-75
2022/11/23 04:00:15;;;;;;;1999.90;999.90;;;12.90;99.90;;;;;;5092506;28;20057;-75
2022/11/23 04:02:42;;;;;;;1999.90;999.90;;;12.90;99.90;;;;;;5111762;27;20589;-76
2022/11/23 04:05:08;;;;;;;1999.90;999.90;;;13.00;99.90;;;;;;5072613;28;20028;-76
2022/11/23 04:07:34;;;;;;;1999.90;999.90;;;13.10;99.90;;;;;;5072189;28;20028;-75
2022/11/23 04:09:59;;;;;;;1999.90;999.90;;;13.00;99.90;;;;;;5071126;28;20483;-76
2022/11/23 04:12:25;;;;;;;1999.90;999.90;;;13.10;99.90;;;;;;5067174;28;20025;-78
2022/11/23 04:14:51;;;;;;;1999.90;999.90;;;13.10;99.90;;;;;;5052671;28;20021;-76
2022/11/23 04:17:17;;;;;;;1999.90;999.90;;;13.10;99.90;;;;;;5062021;28;20020;-77
2022/11/23 04:19:42;;;;;;;1999.90;999.90;;;13.20;99.90;;;;;;5070721;28;20025;-77
2022/11/23 04:22:08;;;;;;;1999.90;999.90;;;13.30;99.90;;;;;;5071796;28;20526;-77
2022/11/23 04:24:34;;;;;;;1999.90;999.90;;;13.40;99.90;;;;;;5071612;28;20024;-76
2022/11/23 04:26:59;;;;;;;1999.90;999.90;;;13.40;99.90;;;;;;5069043;28;20520;-76
2022/11/23 04:29:25;;;;;;;1999.90;999.90;;;13.40;99.90;;;;;;5071534;28;20562;-78
2022/11/23 04:31:51;;;;;;;1999.90;999.90;;;13.50;99.90;;;;;;5072451;28;20107;-75
2022/11/23 04:34:16;;;;;;;1999.90;999.90;;;13.50;99.90;;;;;;5071959;28;20021;-76
2022/11/23 04:36:42;;;;;;;1999.90;999.90;;;13.60;99.90;;;;;;5071957;28;20032;-75
2022/11/23 04:39:09;;;;;;;1999.90;999.90;;;13.60;99.90;;;;;;5072383;28;20036;-86
2022/11/23 04:41:34;;;;;;;1999.90;999.90;;;13.70;99.90;;;;;;5072048;28;20067;-81
2022/11/23 04:44:00;;;;;;;1999.90;999.90;;;13.80;99.90;;;;;;5077086;28;20056;-75
2022/11/23 04:46:26;;;;;;;1999.90;999.90;;;13.90;99.90;;;;;;5096243;28;20043;-76
2022/11/23 04:48:51;;;;;;;1999.90;999.90;;;13.80;99.90;;;;;;5094649;28;20111;-75
2022/11/23 04:51:17;;;;;;;1999.90;999.90;;;13.90;99.90;;;;;;5128890;27;20043;-87
2022/11/23 04:53:42;;;;;;;1999.90;999.90;;;13.80;99.90;;;;;;5096034;28;20028;-86
2022/11/23 04:56:08;;;;;;;1999.90;999.90;;;13.80;99.90;;;;;;5096249;28;20024;-84
2022/11/23 04:58:35;;;;;;;1999.90;999.90;;;13.80;99.90;;;;;;5095783;28;20095;-87
2022/11/23 05:01:01;;;;;;;1999.90;999.90;;;13.80;99.90;;;;;;5095226;28;20032;-75
2022/11/23 05:03:27;;;;;;;1999.90;999.90;;;13.80;99.90;;;;;;5076025;28;20040;-75
2022/11/23 05:05:53;;;;;;;1999.90;999.90;;;13.70;99.90;;;;;;5074725;28;20158;-89
2022/11/23 05:08:18;;;;;;;1999.90;999.90;;;13.80;99.90;;;;;;5074710;28;20028;-84
2022/11/23 05:10:44;;;;;;;1999.90;999.90;;;13.80;99.90;;;;;;5071967;28;20517;-80
2022/11/23 05:13:10;;;;;;;1999.90;999.90;;;13.70;99.90;;;;;;5054180;28;20159;-77
2022/11/23 05:15:35;;;;;;;1999.90;999.90;;;13.80;99.90;;;;;;5054645;28;20099;-75
2022/11/23 05:18:03;;;;;;;1999.90;999.90;;;13.70;99.90;;;;;;5071453;28;20016;-76
2022/11/23 05:20:29;;;;;;;1999.90;999.90;;;13.60;99.90;;;;;;5075250;28;20048;-80
2022/11/23 05:22:55;;;;;;;1999.90;999.90;;;13.60;99.90;;;;;;5073976;28;20484;-78
2022/11/23 05:25:20;;;;;;;1999.90;999.90;;;13.60;99.90;;;;;;5075068;28;20035;-76
2022/11/23 05:27:46;;;;;;;1999.90;999.90;;;13.70;99.90;;;;;;5075062;28;20031;-76
2022/11/23 05:30:12;;;;;;;1999.90;999.90;;;13.70;99.90;;;;;;5075333;28;20027;-75
2022/11/23 05:32:38;;;;;;;1999.90;999.90;;;13.70;99.90;;;;;;5074048;28;20541;-80
2022/11/23 05:35:05;;;;;;;1999.90;999.90;;;13.70;99.90;;;;;;5073703;28;20028;-78
2022/11/23 05:37:30;;;;;;;1999.90;999.90;;;13.70;99.90;;;;;;5073803;28;20020;-79
2022/11/23 05:39:56;;;;;;;1999.90;999.90;;;13.60;99.90;;;;;;5073253;28;20038;-77
2022/11/23 05:42:21;;;;;;;1999.90;999.90;;;13.60;99.90;;;;;;5074962;28;20032;-76
2022/11/23 05:44:47;;;;;;;1999.90;999.90;;;13.50;99.90;;;;;;5084800;28;20021;-80
2022/11/23 05:47:13;;;;;;;1999.90;999.90;;;13.50;99.90;;;;;;5095245;28;20039;-77
2022/11/23 05:49:38;;;;;;;1999.90;999.90;;;13.50;99.90;;;;;;5095353;28;20035;-79
2022/11/23 05:52:05;;;;;;;1999.90;999.90;;;13.50;99.90;;;;;;5078064;28;20025;-77
2022/11/23 05:54:30;;;;;;;1999.90;999.90;;;13.40;99.90;;;;;;5074632;28;20024;-77
2022/11/23 05:56:56;;;;;;;1999.90;999.90;;;13.40;99.90;;;;;;5072548;28;20027;-77
2022/11/23 05:59:22;;;;;;;1999.90;999.90;;;13.40;99.90;;;;;;5073386;28;20110;-80
2022/11/23 06:01:47;;;;;;;1999.90;999.90;;;13.40;99.90;;;;;;5073049;28;20062;-79
2022/11/23 06:04:13;;;;;;;1999.90;999.90;;;13.40;99.90;;;;;;5072760;28;20063;-79
2022/11/23 06:06:39;;;;;;;1999.90;999.90;;;13.50;99.90;;;;;;5074176;28;20499;-77
2022/11/23 06:09:04;;;;;;;1999.90;999.90;;;13.60;99.90;;;;;;5073799;28;20032;-77
2022/11/23 06:11:31;;;;;;;1999.90;999.90;;;13.50;99.90;;;;;;5064363;28;20025;-77
2022/11/23 06:13:57;;;;;;;1999.90;999.90;;;13.50;99.90;;;;;;5053152;28;20404;-77
2022/11/23 06:16:23;;;;;;;1999.90;999.90;;;13.50;99.90;;;;;;5071206;28;20039;-78
2022/11/23 06:18:48;;;;;;;1999.90;999.90;;;13.50;99.90;;;;;;5074247;28;20025;-77
2022/11/23 06:21:14;;;;;;;1999.90;999.90;;;13.50;99.90;;;;;;5072940;28;20036;-78
2022/11/23 06:23:40;;;;;;;1999.90;999.90;;;13.50;99.90;;;;;;5073459;28;20545;-79
2022/11/23 06:26:05;;;;;;;1999.90;999.90;;;13.50;99.90;;;;;;5074266;28;20487;-81
2022/11/23 06:28:31;;;;;;;1999.90;999.90;;;13.50;99.90;;;;;;5073886;28;20020;-83
2022/11/23 06:31:02;;;;;;;1999.90;999.90;;;13.60;99.90;;;;;;5070933;28;20470;-77
2022/11/23 06:33:27;;;;;;;1999.90;999.90;;;13.60;99.90;;;;;;5073387;28;20507;-80
2022/11/23 06:35:55;;;;;;;1999.90;999.90;;;13.70;99.90;;;;;;5072439;28;20029;-80
2022/11/23 06:38:21;;;;;;;1999.90;999.90;;;13.60;99.90;;;;;;5068892;28;20012;-83
2022/11/23 06:40:46;;;;;;;1999.90;999.90;;;13.60;99.90;;;;;;5073796;28;20065;-80
2022/11/23 06:43:12;;;;;;;1999.90;999.90;;;13.60;99.90;;;;;;5089659;28;20110;-79
2022/11/23 06:45:38;;;;;;;1999.90;999.90;;;13.60;99.90;;;;;;5092337;28;20475;-78
2022/11/23 06:48:04;;;;;;;1999.90;999.90;;;13.60;99.90;;;;;;5075236;28;20081;-79
2022/11/23 06:50:29;;;;;;;1999.90;999.90;;;13.60;99.90;;;;;;5071600;28;20024;-81
2022/11/23 06:52:56;;;;;;;1999.90;999.90;;;13.50;99.90;;;;;;5082628;28;20403;-82
2022/11/23 06:55:23;;;;;;;1999.90;999.90;;;13.50;99.90;;;;;;5053205;28;20056;-82
2022/11/23 06:57:48;;;;;;;1999.90;999.90;;;13.50;99.90;;;;;;5080914;28;20061;-86
2022/11/23 07:00:14;;;;;;;1999.90;999.90;;;13.50;99.90;;;;;;5081261;28;20114;-81
2022/11/23 07:02:40;;;;;;;1999.90;999.90;;;13.50;99.90;;;;;;5080057;28;20078;-81
2022/11/23 07:05:06;;;;;;;1999.90;999.90;;;13.50;99.90;;;;;;5079617;28;20115;-80
2022/11/23 07:07:32;;;;;;;1999.90;999.90;;;13.50;99.90;;;;;;5092021;28;20020;-81
2022/11/23 07:09:58;;;;;;;1999.90;999.90;;;13.50;99.90;;;;;;5074284;28;20067;-83
2022/11/23 07:12:24;;;;;;;1999.90;999.90;;;13.50;99.90;;;;;;5084218;28;20109;-78
2022/11/23 07:14:51;;;;;;;1999.90;999.90;;;13.50;99.90;;;;;;5081591;28;20060;-78
2022/11/23 07:17:16;;;;;;;1999.90;999.90;;;13.60;99.90;;;;;;5078098;28;20032;-78
2022/11/23 07:19:42;;;;;;;1999.90;999.90;;;13.70;99.90;;;;;;5068578;28;20043;-79
2022/11/23 07:22:08;;;;;;;1999.90;999.90;;;13.70;99.90;;;;;;5069245;28;20024;-78
2022/11/23 07:24:33;;;;;;;1999.90;999.90;;;13.80;99.90;;;;;;5071189;28;20090;-77
2022/11/23 07:27:00;;;;;;;1999.90;999.90;;;13.80;99.90;;;;;;5066419;28;20078;-79
2022/11/23 07:29:25;;;;;;;1999.90;999.90;;;13.80;99.90;;;;;;5068884;28;20028;-78
2022/11/23 07:31:51;;;;;;;1999.90;999.90;;;13.90;99.90;;;;;;5072817;28;20158;-82
2022/11/23 07:34:17;;;;;;;1999.90;999.90;;;14.00;99.90;;;;;;5079145;28;20099;-78
2022/11/23 07:36:43;;;;;;;1999.90;999.90;;;14.10;99.90;;;;;;5068698;28;20051;-77
2022/11/23 07:39:08;;;;;;;1999.90;999.90;;;14.10;99.90;;;;;;5073634;28;20028;-78
2022/11/23 07:41:34;;;;;;;1999.90;999.90;;;14.10;99.90;;;;;;5077951;28;20039;-83
2022/11/23 07:43:59;;;;;;;1999.90;999.90;;;14.10;99.90;;;;;;5072623;28;20474;-80
2022/11/23 07:46:25;;;;;;;1999.90;999.90;;;14.10;99.90;;;;;;5073206;28;20051;-76
2022/11/23 07:48:53;;;;;;;1999.90;999.90;;;14.10;99.90;;;;;;5087550;28;20031;-75
2022/11/23 07:51:19;;;;;;;1999.90;999.90;;;14.10;99.90;;;;;;5085613;28;20024;-76
2022/11/23 07:53:45;;;;;;;1999.90;999.90;;;14.20;99.90;;;;;;5088686;28;20032;-78
2022/11/23 07:56:11;;;;;;;1999.90;999.90;;;14.20;99.90;;;;;;5073606;28;20017;-81
2022/11/23 07:58:36;;;;;;;1999.90;999.90;;;14.20;99.90;;;;;;5069145;28;20093;-78
2022/11/23 08:01:02;;;;;;;1999.90;999.90;;;14.30;99.90;;;;;;5071943;28;20025;-79
2022/11/23 08:03:28;;;;;;;1999.90;999.90;;;14.30;99.90;;;;;;5067664;28;20058;-77
2022/11/23 08:06:08;;;;;;;1999.90;999.90;;;14.30;99.90;;;;;;5071188;28;20101;-79
2022/11/23 08:08:34;;;;;;;1999.90;999.90;;;14.20;99.90;;;;;;5063867;28;20036;-79
2022/11/23 08:10:59;;;;;;;1999.90;999.90;;;14.30;99.90;;;;;;5066396;28;20098;-76
2022/11/23 08:13:25;;;;;;;1999.90;999.90;;;14.20;99.90;;;;;;5073236;28;20016;-79
2022/11/23 08:15:51;;;;;;;1999.90;999.90;;;14.10;99.90;;;;;;5062665;28;20035;-78
2022/11/23 08:18:16;;;;;;;1999.90;999.90;;;14.10;99.90;;;;;;5064876;28;20124;-76
2022/11/23 08:20:42;;;;;;;1999.90;999.90;;;14.10;99.90;;;;;;5068699;28;20059;-78
2022/11/23 08:23:07;;;;;;;1999.90;999.90;;;14.10;99.90;;;;;;5064423;28;20188;-77
2022/11/23 08:25:33;;;;;;;1999.90;999.90;;;14.20;99.90;;;;;;5064588;28;20035;-76
2022/11/23 08:28:04;;;;;;;1999.90;999.90;;;14.20;99.90;;;;;;5067423;28;20099;-79
2022/11/23 08:30:31;;;;;;;1999.90;999.90;;;14.30;99.90;;;;;;5071123;28;20090;-78
2022/11/23 08:32:56;;;;;;;1999.90;999.90;;;14.30;99.90;;;;;;5081819;28;20039;-82
2022/11/23 08:35:22;;;;;;;1999.90;999.90;;;14.40;99.90;;;;;;5070547;28;20017;-79
2022/11/23 08:37:48;;;;;;;1999.90;999.90;;;14.50;99.90;;;;;;5073978;28;20095;-79
2022/11/23 08:40:14;;;;;;;1999.90;999.90;;;14.50;99.90;;;;;;5079173;28;20034;-81
2022/11/23 08:42:40;;;;;;;1999.90;999.90;;;14.60;99.90;;;;;;5070474;28;20032;-79
2022/11/23 08:45:06;;;;;;;1999.90;999.90;;;14.60;99.90;;;;;;5065529;28;20032;-79
2022/11/23 08:47:33;;;;;;;1999.90;999.90;;;14.60;99.90;;;;;;5065175;28;20047;-76
2022/11/23 08:49:59;;;;;;;1999.90;999.90;;;14.60;99.90;;;;;;5068833;28;20498;-76
2022/11/23 08:52:25;;;;;;;1999.90;999.90;;;14.60;99.90;;;;;;5070254;28;20025;-79
2022/11/23 08:54:50;;;;;;;1999.90;999.90;;;14.70;99.90;;;;;;5073155;28;20446;-80
2022/11/23 08:57:16;;;;;;;1999.90;999.90;;;14.60;99.90;;;;;;5069928;28;20107;-78
2022/11/23 08:59:42;;;;;;;1999.90;999.90;;;14.70;99.90;;;;;;5069487;28;20104;-75
2022/11/23 09:02:11;;;;;;;1999.90;999.90;;;14.60;99.90;;;;;;5072603;28;20176;-79
2022/11/23 09:04:38;;;;;;;1999.90;999.90;;;14.60;99.90;;;;;;5061235;28;20481;-77
2022/11/23 09:07:03;;;;;;;1999.90;999.90;;;14.60;99.90;;;;;;5071562;28;20032;-78
2022/11/23 09:09:29;;;;;;;1999.90;999.90;;;14.60;99.90;;;;;;5063343;28;20028;-77
2022/11/23 09:11:55;;;;;;;1999.90;999.90;;;14.60;99.90;;;;;;5066095;28;20025;-80
2022/11/23 09:14:21;;;;;;;1999.90;999.90;;;14.60;99.90;;;;;;5070221;28;20043;-78
2022/11/23 09:16:47;;;;;;;1999.90;999.90;;;14.60;99.90;;;;;;5069630;28;20072;-76
2022/11/23 09:19:13;;;;;;;1999.90;999.90;;;14.60;99.90;;;;;;5067261;28;20048;-75
2022/11/23 09:21:41;;;;;;;1999.90;999.90;;;14.60;99.90;;;;;;5066365;28;20131;-78
2022/11/23 09:24:08;;;;;;;1999.90;999.90;;;14.60;99.90;;;;;;5068792;28;20024;-77
2022/11/23 09:26:36;;;;;;;1999.90;999.90;;;14.70;99.90;;;;;;5067469;28;20024;-75
2022/11/23 09:29:02;;;;;;;1999.90;999.90;;;14.70;99.90;;;;;;5076820;28;20071;-76
2022/11/23 09:31:28;;;;;;;1999.90;999.90;;;14.70;99.90;;;;;;5070936;28;20395;-75
2022/11/23 09:33:54;;;;;;;1999.90;999.90;;;14.70;99.90;;;;;;5085356;28;20043;-78
2022/11/23 09:36:21;;;;;;;1999.90;999.90;;;14.70;99.90;;;;;;5076017;28;20028;-76
2022/11/23 09:38:48;;;;;;;1999.90;999.90;;;15.00;99.90;;;;;;5071158;28;20562;-75
2022/11/23 09:41:41;;;;;;;1999.90;999.90;;;15.00;99.90;;;;;;5072560;28;20043;-75
2022/11/23 09:44:12;;;;;;;1999.90;999.90;;;14.70;99.90;;;;;;5068833;28;20480;-75
2022/11/23 09:47:35;;;;;;;1999.90;999.90;;;14.40;99.90;;;;;;5073730;28;20093;-78
2022/11/23 09:50:08;;;;;;;1999.90;999.90;;;14.30;99.90;;;;;;5014121;28;20037;-74
2022/11/23 09:52:35;;;;;;;1999.90;999.90;;;14.40;99.90;;;;;;5008607;28;20289;-77
2022/11/23 09:55:10;;;;;;;1999.90;999.90;;;14.40;99.90;;;;;;5031754;28;20480;-77
2022/11/23 09:57:39;;;;;;;1999.90;999.90;;;14.50;99.90;;;;;;5066764;28;20899;-77
2022/11/23 10:00:07;;;;;;;1999.90;999.90;;;14.40;99.90;;;;;;5078476;28;20048;-78
2022/11/23 10:02:39;;;;;;;1999.90;999.90;;;14.50;99.90;;;;;;5067148;28;20063;-77
2022/11/23 10:05:06;;;;;;;1999.90;999.90;;;14.50;99.90;;;;;;5066567;28;20085;-77
2022/11/23 10:08:01;;;;;;;1999.90;999.90;;;14.50;99.90;;;;;;5075679;28;20082;-75
2022/11/23 10:10:58;;;;;;;1999.90;999.90;;;14.60;99.90;;;;;;5057381;28;20024;-75
2022/11/23 10:13:38;;;;;;;1999.90;999.90;;;14.60;99.90;;;;;;5021855;28;20521;-80
2022/11/23 10:16:09;;;;;;;1999.90;999.90;;;14.50;99.90;;;;;;5066792;28;20037;-79
2022/11/23 10:18:50;;;;;;;1999.90;999.90;;;14.50;99.90;;;;;;5067588;28;20025;-76
2022/11/23 10:21:36;;;;;;;1999.90;999.90;;;14.60;99.90;;;;;;5068990;28;20049;-75
2022/11/23 10:24:18;;;;;;;1999.90;999.90;;;14.70;99.90;;;;;;5068659;28;20033;-76
2022/11/23 10:26:45;;;;;;;1999.90;999.90;;;14.70;99.90;;;;;;5069856;28;20024;-79
2022/11/23 10:29:34;;;;;;;1999.90;999.90;;;14.80;99.90;;;;;;5072622;28;20075;-78
2022/11/23 10:32:01;;;;;;;1999.90;999.90;;;14.80;99.90;;;;;;5101196;27;20024;-78
2022/11/23 10:34:50;;;;;;;1999.90;999.90;;;14.90;99.90;;;;;;5068860;28;20028;-79
2022/11/23 10:37:16;;;;;;;1999.90;999.90;;;14.90;99.90;;;;;;5066929;28;20545;-77
2022/11/23 10:39:42;;;;;;;1999.90;999.90;;;14.80;99.90;;;;;;5068370;28;20107;-77
2022/11/23 10:42:35;;;;;;;1999.90;999.90;;;14.70;99.90;;;;;;5069165;28;20467;-78
2022/11/23 10:45:00;;;;;;;1999.90;999.90;;;14.60;99.90;;;;;;5066732;28;20143;-78
2022/11/23 10:47:59;;;;;;;1999.90;999.90;;;14.50;99.90;;;;;;5062191;28;20139;-75
2022/11/23 10:50:29;;;;;;;1999.90;999.90;;;14.60;99.90;;;;;;5056501;28;20041;-78
2022/11/23 10:52:56;;;;;;;1999.90;999.90;;;14.80;99.90;;;;;;5073752;28;20035;-76
2022/11/23 10:55:27;;;;;;;1999.90;999.90;;;14.90;99.90;;;;;;5057587;28;20032;-74
2022/11/23 10:57:53;;;;;;;1999.90;999.90;;;14.90;99.90;;;;;;5059917;28;20103;-76
2022/11/23 11:00:21;;;;;;;1999.90;999.90;;;14.90;99.90;;;;;;5066120;28;20111;-76
2022/11/23 11:02:53;;;;;;;1999.90;999.90;;;15.00;99.90;;;;;;5063427;28;20749;-73
2022/11/23 11:05:37;;;;;;;1999.90;999.90;;;15.10;99.90;;;;;;5070413;28;20078;-74
2022/11/23 11:08:15;;;;;;;1999.90;999.90;;;15.10;99.90;;;;;;5069839;28;20851;-75
2022/11/23 11:10:55;;;;;;;1999.90;999.90;;;15.20;99.90;;;;;;5063187;28;20035;-74
2022/11/23 11:13:31;;;;;;;1999.90;999.90;;;15.30;99.90;;;;;;5069702;28;20029;-75
2022/11/23 11:16:03;;;;;;;1999.90;999.90;;;15.30;99.90;;;;;;5066319;28;20029;-74
2022/11/23 11:18:36;;;;;;;1999.90;999.90;;;15.30;99.90;;;;;;5068004;28;20029;-75
2022/11/23 11:21:21;;;;;;;1999.90;999.90;;;15.30;99.90;;;;;;5063685;28;20035;-77
2022/11/23 11:24:00;;;;;;;1999.90;999.90;;;15.30;99.90;;;;;;5068277;28;20495;-75
2022/11/23 11:26:28;;;;;;;1999.90;999.90;;;15.20;99.90;;;;;;5068130;28;20097;-76
2022/11/23 11:29:02;;;;;;;1999.90;999.90;;;15.20;99.90;;;;;;5068792;28;20113;-74
2022/11/23 11:31:45;;;;;;;1999.90;999.90;;;15.20;99.90;;;;;;5070570;28;20033;-75
2022/11/23 11:34:39;;;;;;;1999.90;999.90;;;15.30;99.90;;;;;;5066739;28;20066;-75
2022/11/23 11:37:33;;;;;;;1999.90;999.90;;;15.30;99.90;;;;;;5063366;28;20059;-75
2022/11/23 11:40:20;;;;;;;1999.90;999.90;;;15.30;99.90;;;;;;5038184;28;20628;-75
2022/11/23 11:43:17;;;;;;;1999.90;999.90;;;15.40;99.90;;;;;;5069470;28;20024;-77
2022/11/23 11:45:47;;;;;;;1999.90;999.90;;;15.40;99.90;;;;;;5038244;28;20507;-75
2022/11/23 11:48:23;;;;;;;1999.90;999.90;;;15.40;99.90;;;;;;5064935;28;20043;-74
2022/11/23 11:50:59;;;;;;;1999.90;999.90;;;15.40;99.90;;;;;;5066017;28;20387;-75
2022/11/23 11:54:00;;;;;;;1999.90;999.90;;;15.50;99.90;;;;;;5069337;28;20399;-75
2022/11/23 11:56:43;;;;;;;1999.90;999.90;;;15.50;99.90;;;;;;5034578;28;20059;-75
2022/11/23 11:59:19;;;;;;;1999.90;999.90;;;15.50;99.90;;;;;;5071814;28;20023;-74
2022/11/23 12:02:02;;;;;;;1999.90;999.90;;;15.40;99.90;;;;;;5062040;28;20062;-74
2022/11/23 12:04:49;;;;;;;1999.90;999.90;;;15.50;99.90;;;;;;5069235;28;20500;-75
2022/11/23 12:07:35;;;;;;;1999.90;999.90;;;15.50;99.90;;;;;;5070229;28;20032;-75